sensor_id;sensor_type;location;lat;lon;timestamp;P1;durP1;ratioP1;P2;durP2;ratioP2
61675;SDS011;47574;52.090;5.244;2023-05-25T00:00:28;12.5;;;5.5;;
61675;SDS011;47574;52.090;5.244;2023-05-25T00:03:41;15.1;;;5.9;;
61675;SDS011;47574;52.090;5.244;2023-05-25T00:05:17;13.7;;;5.8;;
61675;SDS011;47574;52.090;5.244;2023-05-25T00:06:53;14.2;;;5.5;;
61675;SDS011;47574;52.090;5.244;2023-05-25T00:10:06;14.4;;;5.3;;
61675;SDS011;47574;52.090;5.244;2023-05-25T00:11:43;13.0;;;5.4;;
61675;SDS011;47574;52.090;5.244;2023-05-25T00:13:19;14.5;;;5.0;;
61675;SDS011;47574;52.090;5.244;2023-05-25T00:14:55;13.3;;;5.2;;
61675;SDS011;47574;52.090;5.244;2023-05-25T00:18:07;12.8;;;5.8;;
61675;SDS011;47574;52.090;5.244;2023-05-25T00:19:43;13.4;;;5.6;;
61675;SDS011;47574;52.090;5.244;2023-05-25T00:21:20;11.6;;;5.4;;
61675;SDS011;47574;52.090;5.244;2023-05-25T00:24:33;15.9;;;5.9;;
61675;SDS011;47574;52.090;5.244;2023-05-25T00:26:09;11.5;;;5.3;;
61675;SDS011;47574;52.090;5.244;2023-05-25T00:27:45;13.6;;;5.2;;
61675;SDS011;47574;52.090;5.244;2023-05-25T00:30:57;17.0;;;5.7;;
61675;SDS011;47574;52.090;5.244;2023-05-25T00:32:33;12.8;;;5.8;;
61675;SDS011;47574;52.090;5.244;2023-05-25T00:34:10;15.4;;;5.8;;
61675;SDS011;47574;52.090;5.244;2023-05-25T00:37:22;11.4;;;5.11;;
61675;SDS011;47574;52.090;5.244;2023-05-25T00:38:58;14.4;;;5.4;;
61675;SDS011;47574;52.090;5.244;2023-05-25T00:40:34;13.7;;;5.3;;
61675;SDS011;47574;52.090;5.244;2023-05-25T00:42:14;11.8;;;5.3;;
61675;SDS011;47574;52.090;5.244;2023-05-25T00:45:27;14.8;;;5.6;;
61675;SDS011;47574;52.090;5.244;2023-05-25T00:47:03;14.6;;;5.8;;
61675;SDS011;47574;52.090;5.244;2023-05-25T00:48:39;11.9;;;5.2;;
61675;SDS011;47574;52.090;5.244;2023-05-25T00:52:05;14.9;;;6.9;;
61675;SDS011;47574;52.090;5.244;2023-05-25T00:53:42;10.7;;;5.11;;
61675;SDS011;47574;52.090;5.244;2023-05-25T00:55:18;11.6;;;5.3;;
61675;SDS011;47574;52.090;5.244;2023-05-25T00:56:56;13.6;;;5.2;;
61675;SDS011;47574;52.090;5.244;2023-05-25T01:00:14;11.4;;;5.11;;
61675;SDS011;47574;52.090;5.244;2023-05-25T01:01:51;14.5;;;5.6;;
61675;SDS011;47574;52.090;5.244;2023-05-25T01:03:30;13.6;;;5.3;;
61675;SDS011;47574;52.090;5.244;2023-05-25T01:08:28;11.6;;;4.91;;
61675;SDS011;47574;52.090;5.244;2023-05-25T01:10:08;12.8;;;5.3;;
61675;SDS011;47574;52.090;5.244;2023-05-25T01:11:48;12.7;;;5.3;;
61675;SDS011;47574;52.090;5.244;2023-05-25T01:13:27;11.6;;;4.91;;
61675;SDS011;47574;52.090;5.244;2023-05-25T01:16:42;12.6;;;5.5;;
61675;SDS011;47574;52.090;5.244;2023-05-25T01:18:18;10.0;;;5.0;;
61675;SDS011;47574;52.090;5.244;2023-05-25T01:19:54;14.0;;;5.2;;
61675;SDS011;47574;52.090;5.244;2023-05-25T01:23:11;11.6;;;5.2;;
61675;SDS011;47574;52.090;5.244;2023-05-25T01:24:51;10.8;;;5.11;;
61675;SDS011;47574;52.090;5.244;2023-05-25T01:26:33;10.5;;;5.11;;
61675;SDS011;47574;52.090;5.244;2023-05-25T01:28:17;11.8;;;4.91;;
61675;SDS011;47574;52.090;5.244;2023-05-25T01:31:37;11.5;;;5.5;;
61675;SDS011;47574;52.090;5.244;2023-05-25T01:33:15;12.3;;;5.9;;
61675;SDS011;47574;52.090;5.244;2023-05-25T01:34:53;13.7;;;5.7;;
61675;SDS011;47574;52.090;5.244;2023-05-25T01:36:31;14.9;;;6.0;;
61675;SDS011;47574;52.090;5.244;2023-05-25T01:39:44;11.4;;;5.6;;
61675;SDS011;47574;52.090;5.244;2023-05-25T01:41:20;12.9;;;5.8;;
61675;SDS011;47574;52.090;5.244;2023-05-25T01:42:56;13.7;;;5.6;;
61675;SDS011;47574;52.090;5.244;2023-05-25T01:46:11;13.6;;;5.9;;
61675;SDS011;47574;52.090;5.244;2023-05-25T01:47:56;13.2;;;6.1;;
61675;SDS011;47574;52.090;5.244;2023-05-25T01:49:54;18.0;;;7.9;;
61675;SDS011;47574;52.090;5.244;2023-05-25T01:51:39;12.5;;;5.9;;
61675;SDS011;47574;52.090;5.244;2023-05-25T01:53:25;10.8;;;5.0;;
61675;SDS011;47574;52.090;5.244;2023-05-25T01:56:46;13.1;;;5.6;;
61675;SDS011;47574;52.090;5.244;2023-05-25T01:58:26;12.8;;;5.6;;
61675;SDS011;47574;52.090;5.244;2023-05-25T02:00:07;13.1;;;5.9;;
61675;SDS011;47574;52.090;5.244;2023-05-25T02:01:47;13.7;;;6.0;;
61675;SDS011;47574;52.090;5.244;2023-05-25T02:05:01;13.4;;;5.8;;
61675;SDS011;47574;52.090;5.244;2023-05-25T02:06:37;11.0;;;5.7;;
61675;SDS011;47574;52.090;5.244;2023-05-25T02:08:13;13.1;;;5.5;;
61675;SDS011;47574;52.090;5.244;2023-05-25T02:11:26;14.3;;;6.1;;
61675;SDS011;47574;52.090;5.244;2023-05-25T02:13:02;12.4;;;5.7;;
61675;SDS011;47574;52.090;5.244;2023-05-25T02:14:38;12.8;;;6.1;;
61675;SDS011;47574;52.090;5.244;2023-05-25T02:16:14;13.5;;;6.1;;
61675;SDS011;47574;52.090;5.244;2023-05-25T02:19:27;14.4;;;6.3;;
61675;SDS011;47574;52.090;5.244;2023-05-25T02:21:02;14.3;;;6.1;;
61675;SDS011;47574;52.090;5.244;2023-05-25T02:22:38;12.6;;;5.7;;
61675;SDS011;47574;52.090;5.244;2023-05-25T02:25:50;8.9;;;5.4;;
61675;SDS011;47574;52.090;5.244;2023-05-25T02:27:26;13.5;;;6.1;;
61675;SDS011;47574;52.090;5.244;2023-05-25T02:29:03;10.5;;;5.7;;
61675;SDS011;47574;52.090;5.244;2023-05-25T02:32:21;10.7;;;5.6;;
61675;SDS011;47574;52.090;5.244;2023-05-25T02:33:57;9.9;;;5.5;;
61675;SDS011;47574;52.090;5.244;2023-05-25T02:35:33;14.4;;;6.5;;
61675;SDS011;47574;52.090;5.244;2023-05-25T02:37:09;10.0;;;5.6;;
61675;SDS011;47574;52.090;5.244;2023-05-25T02:40:22;10.3;;;5.7;;
61675;SDS011;47574;52.090;5.244;2023-05-25T02:41:59;11.5;;;5.8;;
61675;SDS011;47574;52.090;5.244;2023-05-25T02:43:35;13.1;;;6.0;;
61675;SDS011;47574;52.090;5.244;2023-05-25T02:46:47;12.8;;;5.7;;
61675;SDS011;47574;52.090;5.244;2023-05-25T02:48:23;11.6;;;6.4;;
61675;SDS011;47574;52.090;5.244;2023-05-25T02:50:00;13.0;;;6.3;;
61675;SDS011;47574;52.090;5.244;2023-05-25T02:53:12;9.81;;;5.6;;
61675;SDS011;47574;52.090;5.244;2023-05-25T02:54:48;13.0;;;6.0;;
61675;SDS011;47574;52.090;5.244;2023-05-25T02:56:24;11.6;;;5.7;;
61675;SDS011;47574;52.090;5.244;2023-05-25T02:59:36;14.7;;;5.5;;
61675;SDS011;47574;52.090;5.244;2023-05-25T03:01:13;12.3;;;6.0;;
61675;SDS011;47574;52.090;5.244;2023-05-25T03:02:49;10.9;;;5.5;;
61675;SDS011;47574;52.090;5.244;2023-05-25T03:04:25;11.6;;;5.7;;
61675;SDS011;47574;52.090;5.244;2023-05-25T03:07:37;10.5;;;5.8;;
61675;SDS011;47574;52.090;5.244;2023-05-25T03:09:13;9.6;;;5.4;;
61675;SDS011;47574;52.090;5.244;2023-05-25T03:10:50;10.8;;;5.8;;
61675;SDS011;47574;52.090;5.244;2023-05-25T03:14:02;10.4;;;5.4;;
61675;SDS011;47574;52.090;5.244;2023-05-25T03:15:38;13.1;;;5.4;;
61675;SDS011;47574;52.090;5.244;2023-05-25T03:17:14;12.5;;;5.9;;
61675;SDS011;47574;52.090;5.244;2023-05-25T03:20:27;12.3;;;5.7;;
61675;SDS011;47574;52.090;5.244;2023-05-25T03:22:03;9.31;;;5.2;;
61675;SDS011;47574;52.090;5.244;2023-05-25T03:23:39;8.31;;;5.11;;
61675;SDS011;47574;52.090;5.244;2023-05-25T03:26:51;8.5;;;4.91;;
61675;SDS011;47574;52.090;5.244;2023-05-25T03:28:27;10.5;;;5.5;;
61675;SDS011;47574;52.090;5.244;2023-05-25T03:30:04;10.5;;;5.6;;
61675;SDS011;47574;52.090;5.244;2023-05-25T03:31:41;9.4;;;5.7;;
61675;SDS011;47574;52.090;5.244;2023-05-25T03:34:54;11.2;;;5.4;;
61675;SDS011;47574;52.090;5.244;2023-05-25T03:36:30;9.0;;;5.5;;
61675;SDS011;47574;52.090;5.244;2023-05-25T03:38:06;12.3;;;5.8;;
61675;SDS011;47574;52.090;5.244;2023-05-25T03:41:19;10.21;;;5.6;;
61675;SDS011;47574;52.090;5.244;2023-05-25T03:42:55;11.4;;;5.7;;
61675;SDS011;47574;52.090;5.244;2023-05-25T03:44:31;12.3;;;5.8;;
61675;SDS011;47574;52.090;5.244;2023-05-25T03:47:43;9.1;;;5.3;;
61675;SDS011;47574;52.090;5.244;2023-05-25T03:49:20;9.4;;;5.4;;
61675;SDS011;47574;52.090;5.244;2023-05-25T03:50:56;11.6;;;5.9;;
61675;SDS011;47574;52.090;5.244;2023-05-25T03:52:32;9.6;;;5.7;;
61675;SDS011;47574;52.090;5.244;2023-05-25T03:55:44;11.0;;;5.2;;
61675;SDS011;47574;52.090;5.244;2023-05-25T03:57:20;8.9;;;4.8;;
61675;SDS011;47574;52.090;5.244;2023-05-25T03:58:56;9.6;;;5.7;;
61675;SDS011;47574;52.090;5.244;2023-05-25T04:02:09;9.1;;;5.7;;
61675;SDS011;47574;52.090;5.244;2023-05-25T04:03:45;11.3;;;6.0;;
61675;SDS011;47574;52.090;5.244;2023-05-25T04:05:21;11.4;;;6.1;;
61675;SDS011;47574;52.090;5.244;2023-05-25T04:08:33;8.4;;;5.2;;
61675;SDS011;47574;52.090;5.244;2023-05-25T04:10:10;9.6;;;5.6;;
61675;SDS011;47574;52.090;5.244;2023-05-25T04:11:46;11.3;;;5.8;;
61675;SDS011;47574;52.090;5.244;2023-05-25T04:14:59;9.5;;;5.6;;
61675;SDS011;47574;52.090;5.244;2023-05-25T04:16:35;9.1;;;5.6;;
61675;SDS011;47574;52.090;5.244;2023-05-25T04:18:11;10.8;;;5.6;;
61675;SDS011;47574;52.090;5.244;2023-05-25T04:19:47;10.1;;;5.4;;
61675;SDS011;47574;52.090;5.244;2023-05-25T04:23:00;12.2;;;6.2;;
61675;SDS011;47574;52.090;5.244;2023-05-25T04:24:36;9.5;;;5.6;;
61675;SDS011;47574;52.090;5.244;2023-05-25T04:26:12;10.4;;;5.3;;
61675;SDS011;47574;52.090;5.244;2023-05-25T04:29:24;11.3;;;5.6;;
61675;SDS011;47574;52.090;5.244;2023-05-25T04:31:00;7.9;;;5.11;;
61675;SDS011;47574;52.090;5.244;2023-05-25T04:32:36;11.7;;;5.9;;
61675;SDS011;47574;52.090;5.244;2023-05-25T04:35:50;9.71;;;5.7;;
61675;SDS011;47574;52.090;5.244;2023-05-25T04:37:26;11.9;;;5.9;;
61675;SDS011;47574;52.090;5.244;2023-05-25T04:39:02;8.2;;;5.0;;
61675;SDS011;47574;52.090;5.244;2023-05-25T04:40:38;11.4;;;5.4;;
61675;SDS011;47574;52.090;5.244;2023-05-25T04:43:50;12.0;;;6.0;;
61675;SDS011;47574;52.090;5.244;2023-05-25T04:45:27;11.4;;;5.9;;
61675;SDS011;47574;52.090;5.244;2023-05-25T04:47:03;10.5;;;5.9;;
61675;SDS011;47574;52.090;5.244;2023-05-25T04:50:16;11.4;;;6.1;;
61675;SDS011;47574;52.090;5.244;2023-05-25T04:51:52;10.21;;;6.2;;
61675;SDS011;47574;52.090;5.244;2023-05-25T04:53:28;11.6;;;6.2;;
61675;SDS011;47574;52.090;5.244;2023-05-25T04:56:42;9.81;;;5.9;;
61675;SDS011;47574;52.090;5.244;2023-05-25T04:58:19;9.31;;;5.9;;
61675;SDS011;47574;52.090;5.244;2023-05-25T04:59:55;13.1;;;6.4;;
61675;SDS011;47574;52.090;5.244;2023-05-25T05:01:31;11.1;;;6.7;;
61675;SDS011;47574;52.090;5.244;2023-05-25T05:04:43;11.8;;;6.8;;
61675;SDS011;47574;52.090;5.244;2023-05-25T05:06:20;11.5;;;6.4;;
61675;SDS011;47574;52.090;5.244;2023-05-25T05:07:56;14.9;;;8.1;;
61675;SDS011;47574;52.090;5.244;2023-05-25T05:11:08;14.4;;;7.1;;
61675;SDS011;47574;52.090;5.244;2023-05-25T05:12:44;12.6;;;7.6;;
61675;SDS011;47574;52.090;5.244;2023-05-25T05:14:20;12.1;;;7.2;;
61675;SDS011;47574;52.090;5.244;2023-05-25T05:17:33;12.3;;;7.1;;
61675;SDS011;47574;52.090;5.244;2023-05-25T05:19:09;14.3;;;6.9;;
61675;SDS011;47574;52.090;5.244;2023-05-25T05:20:45;15.4;;;7.8;;
61675;SDS011;47574;52.090;5.244;2023-05-25T05:23:57;14.6;;;8.2;;
61675;SDS011;47574;52.090;5.244;2023-05-25T05:25:33;14.5;;;7.7;;
61675;SDS011;47574;52.090;5.244;2023-05-25T05:27:11;15.0;;;7.3;;
61675;SDS011;47574;52.090;5.244;2023-05-25T05:28:48;15.5;;;8.0;;
61675;SDS011;47574;52.090;5.244;2023-05-25T05:32:00;16.0;;;8.4;;
61675;SDS011;47574;52.090;5.244;2023-05-25T05:33:36;18.41;;;9.0;;
61675;SDS011;47574;52.090;5.244;2023-05-25T05:35:12;17.91;;;9.0;;
61675;SDS011;47574;52.090;5.244;2023-05-25T05:38:26;18.3;;;9.4;;
61675;SDS011;47574;52.090;5.244;2023-05-25T05:40:02;20.6;;;9.6;;
61675;SDS011;47574;52.090;5.244;2023-05-25T05:41:39;21.7;;;10.1;;
61675;SDS011;47574;52.090;5.244;2023-05-25T05:44:51;14.8;;;9.21;;
61675;SDS011;47574;52.090;5.244;2023-05-25T05:46:27;22.5;;;10.3;;
61675;SDS011;47574;52.090;5.244;2023-05-25T05:48:04;20.8;;;10.21;;
61675;SDS011;47574;52.090;5.244;2023-05-25T05:49:41;24.0;;;11.5;;
61675;SDS011;47574;52.090;5.244;2023-05-25T05:52:53;21.6;;;10.6;;
61675;SDS011;47574;52.090;5.244;2023-05-25T05:54:29;20.3;;;11.2;;
61675;SDS011;47574;52.090;5.244;2023-05-25T05:56:05;22.0;;;11.2;;
61675;SDS011;47574;52.090;5.244;2023-05-25T05:59:27;24.7;;;11.6;;
61675;SDS011;47574;52.090;5.244;2023-05-25T06:01:03;22.7;;;11.5;;
61675;SDS011;47574;52.090;5.244;2023-05-25T06:02:39;25.1;;;11.3;;
61675;SDS011;47574;52.090;5.244;2023-05-25T06:10:13;22.9;;;11.4;;
61675;SDS011;47574;52.090;5.244;2023-05-25T06:11:48;21.9;;;11.1;;
61675;SDS011;47574;52.090;5.244;2023-05-25T06:13:25;20.3;;;11.0;;
61675;SDS011;47574;52.090;5.244;2023-05-25T06:15:01;22.8;;;10.6;;
61675;SDS011;47574;52.090;5.244;2023-05-25T06:19:49;21.5;;;10.7;;
61675;SDS011;47574;52.090;5.244;2023-05-25T06:21:25;20.8;;;10.9;;
61675;SDS011;47574;52.090;5.244;2023-05-25T06:24:38;20.9;;;10.8;;
61675;SDS011;47574;52.090;5.244;2023-05-25T06:26:14;20.5;;;10.4;;
61675;SDS011;47574;52.090;5.244;2023-05-25T06:27:50;20.6;;;9.71;;
61675;SDS011;47574;52.090;5.244;2023-05-25T06:29:26;19.91;;;10.3;;
61675;SDS011;47574;52.090;5.244;2023-05-25T06:32:39;21.2;;;10.4;;
61675;SDS011;47574;52.090;5.244;2023-05-25T06:34:15;20.7;;;10.1;;
61675;SDS011;47574;52.090;5.244;2023-05-25T06:35:51;21.4;;;9.9;;
61675;SDS011;47574;52.090;5.244;2023-05-25T06:39:05;20.41;;;10.4;;
61675;SDS011;47574;52.090;5.244;2023-05-25T06:40:41;18.5;;;9.9;;
61675;SDS011;47574;52.090;5.244;2023-05-25T06:42:17;17.3;;;9.21;;
61675;SDS011;47574;52.090;5.244;2023-05-25T06:45:29;21.4;;;9.5;;
61675;SDS011;47574;52.090;5.244;2023-05-25T06:47:05;19.91;;;9.0;;
61675;SDS011;47574;52.090;5.244;2023-05-25T06:48:42;20.5;;;9.0;;
61675;SDS011;47574;52.090;5.244;2023-05-25T06:50:19;18.0;;;9.0;;
61675;SDS011;47574;52.090;5.244;2023-05-25T06:53:31;19.7;;;8.9;;
61675;SDS011;47574;52.090;5.244;2023-05-25T06:55:07;18.0;;;8.0;;
61675;SDS011;47574;52.090;5.244;2023-05-25T06:56:43;21.8;;;9.0;;
61675;SDS011;47574;52.090;5.244;2023-05-25T06:59:55;20.6;;;8.6;;
61675;SDS011;47574;52.090;5.244;2023-05-25T07:01:32;16.2;;;7.5;;
61675;SDS011;47574;52.090;5.244;2023-05-25T07:03:08;19.0;;;8.5;;
61675;SDS011;47574;52.090;5.244;2023-05-25T07:06:20;17.11;;;7.6;;
61675;SDS011;47574;52.090;5.244;2023-05-25T07:07:56;17.11;;;7.4;;
61675;SDS011;47574;52.090;5.244;2023-05-25T07:09:32;17.41;;;8.71;;
61675;SDS011;47574;52.090;5.244;2023-05-25T07:12:45;17.11;;;8.1;;
61675;SDS011;47574;52.090;5.244;2023-05-25T07:14:21;15.5;;;8.0;;
61675;SDS011;47574;52.090;5.244;2023-05-25T07:15:57;16.11;;;7.2;;
61675;SDS011;47574;52.090;5.244;2023-05-25T07:17:33;12.8;;;7.4;;
61675;SDS011;47574;52.090;5.244;2023-05-25T07:20:46;14.2;;;7.0;;
61675;SDS011;47574;52.090;5.244;2023-05-25T07:22:22;16.2;;;7.1;;
61675;SDS011;47574;52.090;5.244;2023-05-25T07:23:58;12.6;;;7.0;;
61675;SDS011;47574;52.090;5.244;2023-05-25T07:27:10;14.0;;;7.2;;
61675;SDS011;47574;52.090;5.244;2023-05-25T07:28:46;14.9;;;7.1;;
61675;SDS011;47574;52.090;5.244;2023-05-25T07:30:22;17.7;;;7.6;;
61675;SDS011;47574;52.090;5.244;2023-05-25T07:33:35;16.7;;;7.5;;
61675;SDS011;47574;52.090;5.244;2023-05-25T07:35:11;16.7;;;7.5;;
61675;SDS011;47574;52.090;5.244;2023-05-25T07:36:47;15.7;;;6.5;;
61675;SDS011;47574;52.090;5.244;2023-05-25T07:39:59;13.7;;;6.5;;
61675;SDS011;47574;52.090;5.244;2023-05-25T07:41:36;14.1;;;6.6;;
61675;SDS011;47574;52.090;5.244;2023-05-25T07:43:12;14.3;;;6.4;;
61675;SDS011;47574;52.090;5.244;2023-05-25T07:44:48;20.11;;;9.31;;
61675;SDS011;47574;52.090;5.244;2023-05-25T07:48:00;13.8;;;6.5;;
61675;SDS011;47574;52.090;5.244;2023-05-25T07:49:36;14.7;;;6.3;;
61675;SDS011;47574;52.090;5.244;2023-05-25T07:51:13;14.8;;;6.6;;
61675;SDS011;47574;52.090;5.244;2023-05-25T07:54:25;15.7;;;6.5;;
61675;SDS011;47574;52.090;5.244;2023-05-25T07:56:01;16.61;;;6.5;;
61675;SDS011;47574;52.090;5.244;2023-05-25T07:57:37;10.0;;;5.5;;
61675;SDS011;47574;52.090;5.244;2023-05-25T08:00:50;10.9;;;5.6;;
61675;SDS011;47574;52.090;5.244;2023-05-25T08:02:26;12.9;;;6.0;;
61675;SDS011;47574;52.090;5.244;2023-05-25T08:04:02;14.6;;;6.1;;
61675;SDS011;47574;52.090;5.244;2023-05-25T08:05:38;16.0;;;5.5;;
61675;SDS011;47574;52.090;5.244;2023-05-25T08:08:51;11.8;;;4.91;;
61675;SDS011;47574;52.090;5.244;2023-05-25T08:10:27;13.5;;;5.3;;
61675;SDS011;47574;52.090;5.244;2023-05-25T08:12:03;12.5;;;5.4;;
61675;SDS011;47574;52.090;5.244;2023-05-25T08:15:16;12.6;;;4.91;;
61675;SDS011;47574;52.090;5.244;2023-05-25T08:16:52;13.9;;;4.41;;
61675;SDS011;47574;52.090;5.244;2023-05-25T08:18:28;14.9;;;5.0;;
61675;SDS011;47574;52.090;5.244;2023-05-25T08:21:43;14.2;;;4.7;;
61675;SDS011;47574;52.090;5.244;2023-05-25T08:24:55;13.9;;;4.7;;
61675;SDS011;47574;52.090;5.244;2023-05-25T08:26:31;34.6;;;7.5;;
61675;SDS011;47574;52.090;5.244;2023-05-25T08:29:44;13.3;;;4.8;;
61675;SDS011;47574;52.090;5.244;2023-05-25T08:31:20;12.3;;;4.2;;
61675;SDS011;47574;52.090;5.244;2023-05-25T08:32:56;11.1;;;4.3;;
61675;SDS011;47574;52.090;5.244;2023-05-25T08:36:08;9.71;;;4.5;;
61675;SDS011;47574;52.090;5.244;2023-05-25T08:37:44;10.8;;;4.3;;
61675;SDS011;47574;52.090;5.244;2023-05-25T08:39:21;8.9;;;3.9;;
61675;SDS011;47574;52.090;5.244;2023-05-25T08:42:40;7.9;;;3.9;;
61675;SDS011;47574;52.090;5.244;2023-05-25T08:44:16;13.1;;;4.3;;
61675;SDS011;47574;52.090;5.244;2023-05-25T08:45:52;9.1;;;4.0;;
61675;SDS011;47574;52.090;5.244;2023-05-25T08:47:30;9.4;;;4.0;;
61675;SDS011;47574;52.090;5.244;2023-05-25T08:50:47;15.6;;;4.8;;
61675;SDS011;47574;52.090;5.244;2023-05-25T08:52:25;11.1;;;4.7;;
61675;SDS011;47574;52.090;5.244;2023-05-25T08:54:05;12.7;;;4.41;;
61675;SDS011;47574;52.090;5.244;2023-05-25T08:57:22;9.4;;;4.1;;
61675;SDS011;47574;52.090;5.244;2023-05-25T08:59:05;12.4;;;4.61;;
61675;SDS011;47574;52.090;5.244;2023-05-25T09:00:51;11.7;;;4.1;;
61675;SDS011;47574;52.090;5.244;2023-05-25T09:02:34;10.8;;;4.0;;
61675;SDS011;47574;52.090;5.244;2023-05-25T09:04:16;7.6;;;3.9;;
61675;SDS011;47574;52.090;5.244;2023-05-25T09:07:32;7.6;;;3.9;;
61675;SDS011;47574;52.090;5.244;2023-05-25T09:09:08;10.0;;;4.61;;
61675;SDS011;47574;52.090;5.244;2023-05-25T09:10:44;10.6;;;4.2;;
61675;SDS011;47574;52.090;5.244;2023-05-25T09:13:58;11.1;;;3.7;;
61675;SDS011;47574;52.090;5.244;2023-05-25T09:15:34;8.81;;;3.2;;
61675;SDS011;47574;52.090;5.244;2023-05-25T09:17:11;6.6;;;3.1;;
61675;SDS011;47574;52.090;5.244;2023-05-25T09:20:24;5.8;;;3.0;;
61675;SDS011;47574;52.090;5.244;2023-05-25T09:22:00;8.31;;;3.4;;
61675;SDS011;47574;52.090;5.244;2023-05-25T09:23:36;8.4;;;3.5;;
61675;SDS011;47574;52.090;5.244;2023-05-25T09:25:14;10.1;;;3.8;;
61675;SDS011;47574;52.090;5.244;2023-05-25T09:28:30;8.4;;;3.6;;
61675;SDS011;47574;52.090;5.244;2023-05-25T09:30:06;10.5;;;3.7;;
61675;SDS011;47574;52.090;5.244;2023-05-25T09:31:43;10.8;;;3.8;;
61675;SDS011;47574;52.090;5.244;2023-05-25T09:34:55;10.0;;;3.8;;
61675;SDS011;47574;52.090;5.244;2023-05-25T09:36:41;9.9;;;3.9;;
61675;SDS011;47574;52.090;5.244;2023-05-25T09:38:17;9.31;;;4.3;;
61675;SDS011;47574;52.090;5.244;2023-05-25T09:39:53;10.7;;;4.1;;
61675;SDS011;47574;52.090;5.244;2023-05-25T09:44:45;12.7;;;4.61;;
61675;SDS011;47574;52.090;5.244;2023-05-25T09:46:22;9.5;;;4.5;;
61675;SDS011;47574;52.090;5.244;2023-05-25T09:49:34;10.21;;;4.1;;
61675;SDS011;47574;52.090;5.244;2023-05-25T09:51:11;8.2;;;3.9;;
61675;SDS011;47574;52.090;5.244;2023-05-25T09:52:47;10.8;;;3.8;;
61675;SDS011;47574;52.090;5.244;2023-05-25T09:54:24;8.9;;;3.8;;
61675;SDS011;47574;52.090;5.244;2023-05-25T09:57:37;14.9;;;4.41;;
61675;SDS011;47574;52.090;5.244;2023-05-25T09:59:13;12.9;;;4.61;;
61675;SDS011;47574;52.090;5.244;2023-05-25T10:00:51;10.7;;;4.7;;
61675;SDS011;47574;52.090;5.244;2023-05-25T10:04:04;12.5;;;4.5;;
61675;SDS011;47574;52.090;5.244;2023-05-25T10:05:41;12.4;;;4.61;;
61675;SDS011;47574;52.090;5.244;2023-05-25T10:07:17;12.4;;;5.2;;
61675;SDS011;47574;52.090;5.244;2023-05-25T10:10:32;13.3;;;5.0;;
61675;SDS011;47574;52.090;5.244;2023-05-25T10:12:09;12.6;;;4.5;;
61675;SDS011;47574;52.090;5.244;2023-05-25T10:13:49;10.8;;;4.7;;
61675;SDS011;47574;52.090;5.244;2023-05-25T10:15:26;11.0;;;4.7;;
61675;SDS011;47574;52.090;5.244;2023-05-25T10:18:46;12.8;;;4.7;;
61675;SDS011;47574;52.090;5.244;2023-05-25T10:20:26;9.9;;;4.5;;
61675;SDS011;47574;52.090;5.244;2023-05-25T10:22:05;12.3;;;4.8;;
61675;SDS011;47574;52.090;5.244;2023-05-25T10:23:49;15.0;;;4.41;;
61675;SDS011;47574;52.090;5.244;2023-05-25T10:27:14;11.5;;;4.2;;
61675;SDS011;47574;52.090;5.244;2023-05-25T10:28:59;10.0;;;4.1;;
61675;SDS011;47574;52.090;5.244;2023-05-25T10:30:37;9.9;;;4.2;;
61675;SDS011;47574;52.090;5.244;2023-05-25T10:32:15;11.7;;;4.3;;
61675;SDS011;47574;52.090;5.244;2023-05-25T10:35:29;10.0;;;4.41;;
61675;SDS011;47574;52.090;5.244;2023-05-25T10:37:07;10.9;;;4.7;;
61675;SDS011;47574;52.090;5.244;2023-05-25T10:38:44;12.2;;;4.7;;
61675;SDS011;47574;52.090;5.244;2023-05-25T10:41:57;12.2;;;4.91;;
61675;SDS011;47574;52.090;5.244;2023-05-25T10:43:34;10.0;;;4.3;;
61675;SDS011;47574;52.090;5.244;2023-05-25T10:45:11;11.6;;;4.61;;
61675;SDS011;47574;52.090;5.244;2023-05-25T10:46:47;11.5;;;4.91;;
61675;SDS011;47574;52.090;5.244;2023-05-25T10:50:18;10.7;;;4.7;;
61675;SDS011;47574;52.090;5.244;2023-05-25T10:51:56;13.4;;;5.11;;
61675;SDS011;47574;52.090;5.244;2023-05-25T10:53:34;10.4;;;4.41;;
61675;SDS011;47574;52.090;5.244;2023-05-25T10:55:10;10.7;;;4.2;;
61675;SDS011;47574;52.090;5.244;2023-05-25T10:58:57;8.1;;;3.7;;
61675;SDS011;47574;52.090;5.244;2023-05-25T11:00:34;9.71;;;3.9;;
61675;SDS011;47574;52.090;5.244;2023-05-25T11:02:10;8.4;;;3.8;;
61675;SDS011;47574;52.090;5.244;2023-05-25T11:03:46;8.1;;;3.7;;
61675;SDS011;47574;52.090;5.244;2023-05-25T11:07:09;14.8;;;4.2;;
61675;SDS011;47574;52.090;5.244;2023-05-25T11:08:51;9.5;;;4.61;;
61675;SDS011;47574;52.090;5.244;2023-05-25T11:10:40;14.0;;;4.7;;
61675;SDS011;47574;52.090;5.244;2023-05-25T11:12:38;14.0;;;4.7;;
61675;SDS011;47574;52.090;5.244;2023-05-25T11:14:19;7.2;;;3.7;;
61675;SDS011;47574;52.090;5.244;2023-05-25T11:17:59;7.7;;;4.0;;
61675;SDS011;47574;52.090;5.244;2023-05-25T11:19:40;8.5;;;3.7;;
61675;SDS011;47574;52.090;5.244;2023-05-25T11:21:22;8.81;;;3.8;;
61675;SDS011;47574;52.090;5.244;2023-05-25T11:23:23;9.1;;;4.3;;
61675;SDS011;47574;52.090;5.244;2023-05-25T11:25:00;11.6;;;4.7;;
61675;SDS011;47574;52.090;5.244;2023-05-25T11:27:26;11.9;;;4.91;;
61675;SDS011;47574;52.090;5.244;2023-05-25T11:29:10;10.6;;;5.11;;
61675;SDS011;47574;52.090;5.244;2023-05-25T11:30:47;12.0;;;4.41;;
61675;SDS011;47574;52.090;5.244;2023-05-25T11:34:01;11.9;;;4.91;;
61675;SDS011;47574;52.090;5.244;2023-05-25T11:35:39;9.9;;;4.91;;
61675;SDS011;47574;52.090;5.244;2023-05-25T11:37:15;9.6;;;4.61;;
61675;SDS011;47574;52.090;5.244;2023-05-25T11:40:28;9.5;;;4.7;;
61675;SDS011;47574;52.090;5.244;2023-05-25T11:42:04;8.4;;;4.3;;
61675;SDS011;47574;52.090;5.244;2023-05-25T11:43:43;9.1;;;4.5;;
61675;SDS011;47574;52.090;5.244;2023-05-25T11:45:20;11.9;;;5.3;;
61675;SDS011;47574;52.090;5.244;2023-05-25T11:48:36;10.21;;;4.7;;
61675;SDS011;47574;52.090;5.244;2023-05-25T11:50:17;10.21;;;4.41;;
61675;SDS011;47574;52.090;5.244;2023-05-25T11:51:54;9.0;;;4.0;;
61675;SDS011;47574;52.090;5.244;2023-05-25T11:55:09;10.4;;;4.41;;
61675;SDS011;47574;52.090;5.244;2023-05-25T11:56:48;10.9;;;5.0;;
61675;SDS011;47574;52.090;5.244;2023-05-25T11:58:24;9.21;;;3.7;;
61675;SDS011;47574;52.090;5.244;2023-05-25T12:00:00;6.7;;;3.5;;
61675;SDS011;47574;52.090;5.244;2023-05-25T12:03:27;8.4;;;4.0;;
61675;SDS011;47574;52.090;5.244;2023-05-25T12:05:04;10.0;;;3.8;;
61675;SDS011;47574;52.090;5.244;2023-05-25T12:06:41;7.5;;;3.6;;
61675;SDS011;47574;52.090;5.244;2023-05-25T12:08:30;9.1;;;3.3;;
61675;SDS011;47574;52.090;5.244;2023-05-25T12:11:44;10.8;;;3.6;;
61675;SDS011;47574;52.090;5.244;2023-05-25T12:13:20;9.0;;;3.4;;
61675;SDS011;47574;52.090;5.244;2023-05-25T12:14:56;9.4;;;4.41;;
61675;SDS011;47574;52.090;5.244;2023-05-25T12:18:10;10.1;;;3.6;;
61675;SDS011;47574;52.090;5.244;2023-05-25T12:19:46;9.31;;;3.7;;
61675;SDS011;47574;52.090;5.244;2023-05-25T12:21:23;11.4;;;3.7;;
61675;SDS011;47574;52.090;5.244;2023-05-25T12:22:59;12.4;;;3.7;;
61675;SDS011;47574;52.090;5.244;2023-05-25T12:26:12;13.8;;;4.1;;
61675;SDS011;47574;52.090;5.244;2023-05-25T12:28:08;9.0;;;3.3;;
61675;SDS011;47574;52.090;5.244;2023-05-25T12:29:45;9.31;;;3.0;;
61675;SDS011;47574;52.090;5.244;2023-05-25T12:31:22;11.2;;;3.2;;
61675;SDS011;47574;52.090;5.244;2023-05-25T12:34:36;8.71;;;3.5;;
61675;SDS011;47574;52.090;5.244;2023-05-25T12:36:12;7.8;;;3.0;;
61675;SDS011;47574;52.090;5.244;2023-05-25T12:37:48;12.2;;;3.0;;
61675;SDS011;47574;52.090;5.244;2023-05-25T12:41:10;7.1;;;2.9;;
61675;SDS011;47574;52.090;5.244;2023-05-25T12:42:54;8.9;;;3.7;;
61675;SDS011;47574;52.090;5.244;2023-05-25T12:44:31;10.7;;;3.6;;
61675;SDS011;47574;52.090;5.244;2023-05-25T12:46:08;11.1;;;3.9;;
61675;SDS011;47574;52.090;5.244;2023-05-25T12:49:21;11.8;;;3.5;;
61675;SDS011;47574;52.090;5.244;2023-05-25T12:51:03;13.6;;;3.9;;
61675;SDS011;47574;52.090;5.244;2023-05-25T12:52:39;14.7;;;4.0;;
61675;SDS011;47574;52.090;5.244;2023-05-25T12:56:08;12.8;;;4.3;;
61675;SDS011;47574;52.090;5.244;2023-05-25T12:57:44;12.5;;;4.1;;
61675;SDS011;47574;52.090;5.244;2023-05-25T12:59:21;11.9;;;3.7;;